Aviation Digital Data Service (ADDS)

Output produced by METARs form (0721 UTC 23 October 2018)
found at http://aviationweather.gov/metar/data/
 
KGGG 230653Z AUTO 34003KT 10SM CLR 12/12 A3018 RMK AO2 SLP219 T01170117
KGGG 230530Z 2306/2406 VRB03KT P6SM OVC250 
     FM231400 05006KT P6SM OVC150 
     FM240000 06003KT P6SM SCT120 BKN250